Etusivu
METAR-TAF:

METAR-TAF

Lentoasemat :

Madison, Etelä-Dakota, Yhdysvallat

Leveyspiiri: 44-00-59N, Pituuspiiri: 097-05-08W, korkeus merenpinnasta: 524 m

Tämänhetkinen sää

Tämä raportti tehtiin 13 minuuttia sitten, kello 09.55 UTC
Tuuli 3 kn lounaasta
Lämpötila -3°C
Kosteus 100%
Ilmanpaine 1008 hPa
Näkyvyys: 16.1 km
Hajanaisia pilviä 8500 ft:n korkeudessa
Hajonneita pilviä 12000 ft:n korkeudessa

METAR: KMDS 130955Z AUTO 22003KT 10SM SCT085 BKN120 M03/M03 A2977 RMK AO2

Aika: 03:08 (10:08 UTC)


TAF: puuttuu

Säähavainnot ja -ennusteet yli 4000 lentoasemalta (METAR- ja TAF-raportit).

Käytössä olevat sääasemat on merkitty karttaan keltaisilla ja punaisilla pisteillä.

Aseta hiiri pisteen päälle nähdäksesi sääaseman nimen.

Klikkaa sitten nähdäksesi säähavainnot ja -ennusteet.

Kartan vaihtaminen: klikkaa mustalla rastilla varustettuja vihreitä pisteitä, niin voit zoomata sisään; viivalla varustettua vihreää pistettä, niin voit zoomata ulos tai vihreitä nuolia, niin pääset viereisille kartoille.


METAR-TAF: